QTR176 ENGM-OTHH
Flight info
| Callsign | QTR176 |
|---|---|
| Flight time | N/A |
| Altitude | 31000 |
| Route | OKSAT L996 GETPA/N0481F350 L727 NEGIL DCT RUMAR DCT EVGUR DCT KENIN DCT ARGES DCT ARTAT/N0482F370 UP975 ERGUN UL124 EVSAS UM688 RATVO M688 SIDAD P975 LONOS L703 HAYYA |
| Aircraft | B77W/H-SDE1E2E3FGHIJ2J3J4J5M1RWXY/LB1D1 |
Departure
| Time | 2026-04-30 21:46 |
|---|---|
| Airport | Oslo-Gardermoen International Airport (ENGM) |
Arrival
| Time | N/A |
|---|---|
| Airport | Hamad International Airport (OTHH) |
| Time | Latitude | Longitude | Altitude | Speed | Heading |
|---|---|---|---|---|---|
| 2026-04-30 21:12 | 60.19353 | 11.11072 | 694 ft | 0 kts | 197° |
| 2026-04-30 21:28 | 60.19353 | 11.11071 | 694 ft | 0 kts | 197° |
| 2026-04-30 21:29 | 60.19396 | 11.11097 | 694 ft | 3 kts | 195° |
| 2026-04-30 21:30 | 60.19446 | 11.11105 | 694 ft | 3 kts | 162° |
| 2026-04-30 21:31 | 60.19427 | 11.11106 | 694 ft | 3 kts | 186° |
| 2026-04-30 21:31 | 60.19435 | 11.11103 | 694 ft | 2 kts | 164° |
| 2026-04-30 21:32 | 60.19454 | 11.11053 | 694 ft | 3 kts | 94° |
| 2026-04-30 21:32 | 60.19453 | 11.11003 | 694 ft | 3 kts | 90° |
| 2026-04-30 21:32 | 60.19456 | 11.10962 | 694 ft | 0 kts | 102° |
| 2026-04-30 21:32 | 60.19455 | 11.10971 | 694 ft | 2 kts | 102° |
| 2026-04-30 21:33 | 60.19449 | 11.11020 | 694 ft | 3 kts | 104° |
| 2026-04-30 21:33 | 60.19437 | 11.11110 | 694 ft | 0 kts | 105° |
| 2026-04-30 21:35 | 60.19437 | 11.11111 | 694 ft | 0 kts | 105° |
| 2026-04-30 21:36 | 60.19432 | 11.11147 | 694 ft | 6 kts | 105° |
| 2026-04-30 21:36 | 60.19426 | 11.11220 | 694 ft | 6 kts | 86° |
| 2026-04-30 21:37 | 60.19599 | 11.11383 | 694 ft | 8 kts | 17° |
| 2026-04-30 21:37 | 60.19654 | 11.11415 | 694 ft | 7 kts | 15° |
| 2026-04-30 21:37 | 60.19705 | 11.11443 | 694 ft | 7 kts | 16° |
| 2026-04-30 21:37 | 60.19746 | 11.11439 | 694 ft | 5 kts | 323° |
| 2026-04-30 21:38 | 60.19770 | 11.11379 | 694 ft | 5 kts | 301° |
| 2026-04-30 21:38 | 60.19785 | 11.11313 | 694 ft | 4 kts | 290° |
| 2026-04-30 21:38 | 60.19794 | 11.11249 | 694 ft | 5 kts | 286° |
| 2026-04-30 21:38 | 60.19812 | 11.11121 | 694 ft | 13 kts | 285° |
| 2026-04-30 21:39 | 60.19845 | 11.10889 | 694 ft | 20 kts | 287° |
| 2026-04-30 21:39 | 60.19892 | 11.10573 | 694 ft | 24 kts | 285° |
| 2026-04-30 21:39 | 60.19935 | 11.10261 | 694 ft | 22 kts | 285° |
| 2026-04-30 21:39 | 60.19976 | 11.09976 | 694 ft | 19 kts | 286° |
| 2026-04-30 21:40 | 60.20009 | 11.09753 | 694 ft | 18 kts | 286° |
| 2026-04-30 21:40 | 60.20039 | 11.09530 | 694 ft | 13 kts | 286° |
| 2026-04-30 21:40 | 60.20065 | 11.09350 | 694 ft | 12 kts | 285° |
| 2026-04-30 21:40 | 60.20086 | 11.09191 | 694 ft | 11 kts | 285° |
| 2026-04-30 21:41 | 60.20107 | 11.09047 | 694 ft | 10 kts | 287° |
| 2026-04-30 21:41 | 60.20126 | 11.08940 | 694 ft | 6 kts | 301° |
| 2026-04-30 21:41 | 60.20155 | 11.08907 | 694 ft | 4 kts | 353° |
| 2026-04-30 21:41 | 60.20188 | 11.08915 | 694 ft | 6 kts | 13° |
| 2026-04-30 21:42 | 60.20247 | 11.08944 | 694 ft | 10 kts | 16° |
| 2026-04-30 21:42 | 60.20330 | 11.08992 | 694 ft | 14 kts | 15° |
| 2026-04-30 21:42 | 60.20422 | 11.09044 | 694 ft | 16 kts | 15° |
| 2026-04-30 21:42 | 60.20543 | 11.09112 | 694 ft | 19 kts | 18° |
| 2026-04-30 21:43 | 60.20681 | 11.09192 | 694 ft | 21 kts | 15° |
| 2026-04-30 21:43 | 60.20834 | 11.09281 | 694 ft | 24 kts | 16° |
| 2026-04-30 21:43 | 60.20996 | 11.09375 | 694 ft | 26 kts | 17° |
| 2026-04-30 21:43 | 60.21177 | 11.09482 | 694 ft | 28 kts | 17° |
| 2026-04-30 21:44 | 60.21363 | 11.09588 | 694 ft | 26 kts | 17° |
| 2026-04-30 21:44 | 60.21491 | 11.09628 | 694 ft | 15 kts | 345° |
| 2026-04-30 21:44 | 60.21550 | 11.09476 | 694 ft | 13 kts | 288° |
| 2026-04-30 21:44 | 60.21575 | 11.09299 | 694 ft | 12 kts | 284° |
| 2026-04-30 21:45 | 60.21584 | 11.09204 | 694 ft | 4 kts | 263° |
| 2026-04-30 21:45 | 60.21571 | 11.09160 | 694 ft | 3 kts | 221° |
| 2026-04-30 21:45 | 60.21544 | 11.09134 | 694 ft | 7 kts | 200° |
| 2026-04-30 21:45 | 60.21312 | 11.08996 | 694 ft | 78 kts | 195° |
| 2026-04-30 21:46 | 60.20498 | 11.08539 | 695 ft | 164 kts | 196° |
| 2026-04-30 21:46 | 60.19256 | 11.07804 | 1207 ft | 201 kts | 195° |
| 2026-04-30 21:46 | 60.17873 | 11.06986 | 2327 ft | 218 kts | 203° |
| 2026-04-30 21:46 | 60.16662 | 11.05214 | 3545 ft | 231 kts | 234° |
| 2026-04-30 21:47 | 60.15906 | 11.02845 | 4623 ft | 233 kts | 241° |
| 2026-04-30 21:47 | 60.15089 | 11.00016 | 5280 ft | 246 kts | 241° |
| 2026-04-30 21:47 | 60.14185 | 10.96978 | 5962 ft | 258 kts | 234° |
| 2026-04-30 21:47 | 60.12829 | 10.94647 | 6793 ft | 268 kts | 208° |
| 2026-04-30 21:48 | 60.11014 | 10.93777 | 7645 ft | 278 kts | 181° |
| 2026-04-30 21:48 | 60.09112 | 10.94782 | 8490 ft | 289 kts | 154° |
| 2026-04-30 21:48 | 60.07414 | 10.96929 | 9338 ft | 294 kts | 149° |
| 2026-04-30 21:48 | 60.05741 | 10.99205 | 10188 ft | 296 kts | 149° |
| 2026-04-30 21:49 | 60.04066 | 11.01488 | 10872 ft | 305 kts | 149° |
| 2026-04-30 21:49 | 60.02283 | 11.03913 | 11320 ft | 322 kts | 149° |
| 2026-04-30 21:49 | 60.00366 | 11.06516 | 11815 ft | 339 kts | 149° |
| 2026-04-30 21:49 | 59.98388 | 11.09199 | 12356 ft | 354 kts | 148° |
| 2026-04-30 21:50 | 59.96325 | 11.11994 | 12857 ft | 369 kts | 148° |
| 2026-04-30 21:50 | 59.94147 | 11.14939 | 13412 ft | 384 kts | 148° |
| 2026-04-30 21:50 | 59.91892 | 11.17985 | 13973 ft | 398 kts | 148° |
| 2026-04-30 21:50 | 59.89600 | 11.21077 | 14704 ft | 406 kts | 148° |
| 2026-04-30 21:51 | 59.87265 | 11.24222 | 15520 ft | 412 kts | 148° |
| 2026-04-30 21:51 | 59.84883 | 11.27425 | 16293 ft | 418 kts | 148° |
| 2026-04-30 21:51 | 59.82477 | 11.30654 | 17038 ft | 424 kts | 148° |
| 2026-04-30 21:51 | 59.80008 | 11.33961 | 17802 ft | 429 kts | 148° |
| 2026-04-30 21:52 | 59.77623 | 11.37149 | 18500 ft | 434 kts | 148° |
| 2026-04-30 21:52 | 59.75122 | 11.40487 | 19228 ft | 439 kts | 148° |
| 2026-04-30 21:52 | 59.72567 | 11.43890 | 19982 ft | 444 kts | 147° |
| 2026-04-30 21:52 | 59.70020 | 11.47275 | 20693 ft | 448 kts | 147° |
| 2026-04-30 21:53 | 59.67389 | 11.50765 | 21385 ft | 454 kts | 147° |
| 2026-04-30 21:53 | 59.64779 | 11.54219 | 22068 ft | 458 kts | 147° |
| 2026-04-30 21:53 | 59.62117 | 11.57735 | 22752 ft | 463 kts | 147° |